createdAt,value
2018-01-23T00:01:07.269Z,18.37
2018-01-23T00:03:34.947Z,18.73
2018-01-23T00:06:02.631Z,19.13
2018-01-23T00:08:31.081Z,18.10
2018-01-23T00:10:58.757Z,18.07
2018-01-23T00:13:26.433Z,17.33
2018-01-23T00:15:54.112Z,15.87
2018-01-23T00:18:21.755Z,17.83
2018-01-23T00:20:51.408Z,17.77
2018-01-23T00:23:19.057Z,15.93
2018-01-23T00:25:46.729Z,17.70
2018-01-23T00:28:14.402Z,17.33
2018-01-23T00:30:42.047Z,17.63
2018-01-23T00:33:09.771Z,17.60
2018-01-23T00:35:37.460Z,16.80
2018-01-23T00:38:05.915Z,16.10
2018-01-23T00:40:33.601Z,16.20
2018-01-23T00:43:01.298Z,16.63
2018-01-23T00:45:29.009Z,16.83
2018-01-23T00:47:56.620Z,15.10
2018-01-23T00:50:27.952Z,16.43
2018-01-23T00:52:55.556Z,15.60
2018-01-23T00:55:23.173Z,15.43
2018-01-23T00:57:51.550Z,15.60
2018-01-23T01:00:20.066Z,14.23
2018-01-23T01:02:47.754Z,14.73
2018-01-23T01:05:15.411Z,15.87
2018-01-23T01:07:43.126Z,14.03
2018-01-23T01:10:14.772Z,14.93
2018-01-23T01:12:42.449Z,14.67
2018-01-23T01:15:10.897Z,14.30
2018-01-23T01:17:38.614Z,13.80
2018-01-23T01:20:06.403Z,14.10
2018-01-23T01:22:34.094Z,14.37
2018-01-23T01:25:01.749Z,13.77
2018-01-23T01:27:29.369Z,13.97
2018-01-23T01:29:57.000Z,13.60
2018-01-23T01:32:24.696Z,14.70
2018-01-23T01:34:52.392Z,13.83
2018-01-23T01:37:20.107Z,13.57
2018-01-23T01:39:47.850Z,14.70
2018-01-23T01:42:16.321Z,14.47
2018-01-23T01:44:44.022Z,14.60
2018-01-23T01:47:11.700Z,14.20
2018-01-23T01:49:39.652Z,14.37
2018-01-23T01:52:07.260Z,14.33
2018-01-23T01:54:34.842Z,15.10
2018-01-23T01:57:02.454Z,13.20
2018-01-23T01:59:30.050Z,13.93
2018-01-23T02:01:57.711Z,13.90
2018-01-23T02:04:25.410Z,14.37
2018-01-23T02:06:53.125Z,13.20
2018-01-23T02:09:20.829Z,13.30
2018-01-23T02:11:48.473Z,12.63
2018-01-23T02:14:16.195Z,14.03
2018-01-23T02:16:43.904Z,14.73
2018-01-23T02:19:11.620Z,12.60
2018-01-23T02:21:39.328Z,14.20
2018-01-23T02:24:07.104Z,14.23
2018-01-23T02:26:34.810Z,14.40
2018-01-23T02:29:02.518Z,13.73
2018-01-23T02:31:30.200Z,13.90
2018-01-23T02:33:57.911Z,14.10
2018-01-23T02:36:25.619Z,14.00
2018-01-23T02:38:53.352Z,14.53
2018-01-23T02:41:21.129Z,14.97
2018-01-23T02:43:48.816Z,15.73
2018-01-23T02:46:16.524Z,15.43
2018-01-23T02:48:44.198Z,14.67
2018-01-23T02:51:11.873Z,15.50
2018-01-23T02:53:39.574Z,13.83
2018-01-23T02:56:07.373Z,14.43
2018-01-23T02:58:35.090Z,14.47
2018-01-23T03:01:02.781Z,14.60
2018-01-23T03:03:30.514Z,14.90
2018-01-23T03:05:58.158Z,13.77
2018-01-23T03:08:25.822Z,15.17
2018-01-23T03:11:00.732Z,15.40
2018-01-23T03:13:28.444Z,15.23
2018-01-23T03:15:56.145Z,14.10
2018-01-23T03:18:23.823Z,14.80
2018-01-23T03:20:51.511Z,15.03
2018-01-23T03:23:19.194Z,15.70
2018-01-23T03:25:46.886Z,15.63
2018-01-23T03:28:14.527Z,13.97
2018-01-23T03:30:42.241Z,13.83
2018-01-23T03:33:09.951Z,13.43
2018-01-23T03:35:37.647Z,14.47
2018-01-23T03:38:05.337Z,15.87
2018-01-23T03:40:36.130Z,15.57
2018-01-23T03:43:03.808Z,15.10
2018-01-23T03:45:32.234Z,15.60
2018-01-23T03:47:59.920Z,14.93
2018-01-23T03:50:27.573Z,16.37
2018-01-23T03:52:55.261Z,17.07
2018-01-23T03:55:22.941Z,16.00
2018-01-23T03:57:51.477Z,16.83
2018-01-23T04:00:19.146Z,17.17
2018-01-23T04:02:46.805Z,17.83
2018-01-23T04:05:14.495Z,17.40
2018-01-23T04:07:42.188Z,19.63
2018-01-23T04:10:17.201Z,17.37
2018-01-23T04:12:44.900Z,18.27
2018-01-23T04:15:12.546Z,17.47
2018-01-23T04:17:40.961Z,18.53
2018-01-23T04:20:08.736Z,17.60
2018-01-23T04:22:36.438Z,18.00
2018-01-23T04:25:04.114Z,17.97
2018-01-23T04:27:32.584Z,18.50
2018-01-23T04:30:00.260Z,18.80
2018-01-23T04:32:28.712Z,19.03
2018-01-23T04:34:56.364Z,19.83
2018-01-23T04:37:24.055Z,18.23
2018-01-23T04:39:55.685Z,18.03
2018-01-23T04:42:23.411Z,18.97
2018-01-23T04:44:51.136Z,18.20
2018-01-23T04:47:18.842Z,19.40
2018-01-23T04:49:46.513Z,18.97
2018-01-23T04:52:14.191Z,19.10
2018-01-23T04:54:41.876Z,19.57
2018-01-23T04:57:09.574Z,18.53
2018-01-23T04:59:38.067Z,18.43
2018-01-23T05:02:05.733Z,19.10
2018-01-23T05:04:33.398Z,19.53
2018-01-23T05:07:01.098Z,17.80
2018-01-23T05:09:28.898Z,17.87
2018-01-23T05:11:56.584Z,18.27
2018-01-23T05:14:25.092Z,18.60
2018-01-23T05:16:52.787Z,19.57
2018-01-23T05:19:20.479Z,18.57
2018-01-23T05:21:48.957Z,20.13
2018-01-23T05:24:17.438Z,20.43
2018-01-23T05:26:45.094Z,20.03
2018-01-23T05:29:12.793Z,19.97
2018-01-23T05:31:42.442Z,19.10
2018-01-23T05:34:10.096Z,20.10
2018-01-23T05:36:37.747Z,19.90
2018-01-23T05:39:05.450Z,19.87
2018-01-23T05:41:33.161Z,20.27
2018-01-23T05:44:00.900Z,20.27
2018-01-23T05:46:29.722Z,20.07
2018-01-23T05:48:57.424Z,19.13
2018-01-23T05:51:25.134Z,20.13
2018-01-23T05:53:52.830Z,19.07
2018-01-23T05:56:20.518Z,19.60
2018-01-23T05:58:48.184Z,20.90
2018-01-23T06:01:15.933Z,21.87
2018-01-23T06:03:43.615Z,21.07
2018-01-23T06:06:11.299Z,21.07
2018-01-23T06:08:39.011Z,21.97
2018-01-23T06:11:06.708Z,19.23
2018-01-23T06:13:34.391Z,20.90
2018-01-23T06:16:02.854Z,20.80
2018-01-23T06:18:30.488Z,20.13
2018-01-23T06:20:58.130Z,21.73
2018-01-23T06:23:25.713Z,21.37
2018-01-23T06:25:53.389Z,22.30
2018-01-23T06:28:21.010Z,20.47
2018-01-23T06:30:48.828Z,21.70
2018-01-23T06:33:16.488Z,22.27
2018-01-23T06:35:44.154Z,21.80
2018-01-23T06:38:11.844Z,20.63
2018-01-23T06:40:39.575Z,22.27
2018-01-23T06:43:07.304Z,22.87
2018-01-23T06:45:35.027Z,22.70
2018-01-23T06:48:02.753Z,22.67
2018-01-23T06:50:30.436Z,23.50
2018-01-23T06:52:58.130Z,22.27
2018-01-23T06:55:25.837Z,22.50
2018-01-23T06:57:53.538Z,22.77
2018-01-23T07:00:21.407Z,23.13
2018-01-23T07:02:49.130Z,23.43
2018-01-23T07:05:16.823Z,23.97
2018-01-23T07:07:44.507Z,23.67
2018-01-23T07:10:12.173Z,23.30
2018-01-23T07:12:39.801Z,23.37
2018-01-23T07:15:07.476Z,23.10
2018-01-23T07:17:35.157Z,22.77
2018-01-23T07:20:03.165Z,22.93
2018-01-23T07:22:30.796Z,23.63
2018-01-23T07:24:59.268Z,22.87
2018-01-23T07:27:26.969Z,22.73
2018-01-23T07:29:55.848Z,22.67
2018-01-23T07:32:23.549Z,22.67
2018-01-23T07:34:51.258Z,22.80
2018-01-23T07:37:19.699Z,23.17
2018-01-23T07:39:47.368Z,23.90
2018-01-23T07:42:15.033Z,22.20
2018-01-23T07:44:42.714Z,21.77
2018-01-23T07:47:10.363Z,21.03
2018-01-23T07:49:40.518Z,23.63
2018-01-23T07:52:13.531Z,23.10
2018-01-23T07:54:41.605Z,22.07
2018-01-23T07:57:09.303Z,23.43
2018-01-23T07:59:37.032Z,23.03
2018-01-23T08:02:04.713Z,23.37
2018-01-23T08:04:32.866Z,24.10
2018-01-23T08:07:05.970Z,23.37
2018-01-23T08:09:34.010Z,24.17
2018-01-23T08:12:01.684Z,23.87
2018-01-23T08:14:29.368Z,24.87
2018-01-23T08:16:57.012Z,24.67
2018-01-23T08:19:24.732Z,24.90
2018-01-23T08:21:52.465Z,23.70
2018-01-23T08:24:20.177Z,23.97
2018-01-23T08:26:47.849Z,25.10
2018-01-23T08:29:15.501Z,23.33
2018-01-23T08:31:48.978Z,26.20
2018-01-23T08:34:16.669Z,26.70
2018-01-23T08:36:44.929Z,26.03
2018-01-23T08:39:12.598Z,25.43
2018-01-23T08:41:40.310Z,26.10
2018-01-23T08:44:08.008Z,26.87
2018-01-23T08:46:35.681Z,27.03
2018-01-23T08:49:03.519Z,25.73
2018-01-23T08:51:31.252Z,24.80
2018-01-23T08:53:59.758Z,24.67
2018-01-23T08:56:27.434Z,25.10
2018-01-23T08:58:55.114Z,25.70
2018-01-23T09:01:23.962Z,26.43
2018-01-23T09:03:51.664Z,25.80
2018-01-23T09:06:19.291Z,27.73
2018-01-23T09:08:47.036Z,26.70
2018-01-23T09:11:14.715Z,25.40
2018-01-23T09:13:43.102Z,24.63
2018-01-23T09:16:10.751Z,28.40
2018-01-23T09:18:38.415Z,27.73
2018-01-23T09:21:06.108Z,26.93
2018-01-23T09:23:34.181Z,31.50
2018-01-23T09:26:01.852Z,30.23
2018-01-23T09:28:30.315Z,30.80
2018-01-23T09:30:58.127Z,31.03
2018-01-23T09:33:25.787Z,34.80
2018-01-23T09:35:53.582Z,34.23
2018-01-23T09:38:22.069Z,35.07
2018-01-23T09:40:49.778Z,36.10
2018-01-23T09:43:17.458Z,37.77
2018-01-23T09:45:45.975Z,38.10
2018-01-23T09:48:13.705Z,38.00
2018-01-23T09:50:41.387Z,40.60
2018-01-23T09:53:09.078Z,37.80
2018-01-23T09:55:36.784Z,38.60
2018-01-23T09:58:04.382Z,38.60
2018-01-23T10:00:32.175Z,40.10
2018-01-23T10:03:00.562Z,39.37
2018-01-23T10:05:28.205Z,39.33
2018-01-23T10:07:55.893Z,38.30
2018-01-23T10:10:23.576Z,39.27
2018-01-23T10:12:51.262Z,37.83
2018-01-23T10:15:18.960Z,38.40
2018-01-23T10:17:46.658Z,39.67
2018-01-23T10:20:20.482Z,37.23
2018-01-23T10:22:54.101Z,35.60
2018-01-23T10:25:22.376Z,32.43
2018-01-23T10:27:50.022Z,34.03
2018-01-23T10:30:17.743Z,32.73
2018-01-23T10:32:50.683Z,32.27
2018-01-23T10:35:18.636Z,30.60
2018-01-23T10:37:51.043Z,29.80
2018-01-23T10:40:19.098Z,28.13
2018-01-23T10:42:46.814Z,26.70
2018-01-23T10:45:14.525Z,26.33
2018-01-23T10:47:42.198Z,25.50
2018-01-23T10:50:10.853Z,24.77
2018-01-23T10:52:38.593Z,23.93
2018-01-23T10:55:07.069Z,22.07
2018-01-23T10:57:34.788Z,21.03
2018-01-23T11:00:02.712Z,20.03
2018-01-23T11:02:30.731Z,19.63
2018-01-23T11:04:59.015Z,18.87
2018-01-23T11:07:26.790Z,18.50
2018-01-23T11:09:54.512Z,19.90
2018-01-23T11:12:22.319Z,18.07
2018-01-23T11:14:50.008Z,17.23
2018-01-23T11:17:18.993Z,16.77
2018-01-23T11:19:48.612Z,15.17
2018-01-23T11:22:17.035Z,14.73
2018-01-23T11:24:44.682Z,14.03
2018-01-23T11:27:12.380Z,14.00
2018-01-23T11:29:40.204Z,13.93
2018-01-23T11:32:08.150Z,13.33
2018-01-23T11:34:36.012Z,13.57
2018-01-23T11:37:03.711Z,13.87
2018-01-23T11:39:31.720Z,13.77
2018-01-23T11:41:59.418Z,13.30
2018-01-23T11:44:27.876Z,13.40
2018-01-23T11:46:55.794Z,12.73
2018-01-23T11:49:23.453Z,13.00
2018-01-23T11:51:51.157Z,13.53
2018-01-23T11:54:18.856Z,13.23
2018-01-23T11:56:46.598Z,13.57
2018-01-23T11:59:15.771Z,12.87
2018-01-23T12:01:43.474Z,14.27
2018-01-23T12:04:11.170Z,13.17
2018-01-23T12:06:39.692Z,12.90
2018-01-23T12:09:07.357Z,12.13
2018-01-23T12:11:35.124Z,13.07
2018-01-23T12:14:02.820Z,12.77
2018-01-23T12:16:30.526Z,13.00
2018-01-23T12:19:01.468Z,14.30
2018-01-23T12:21:30.223Z,13.00
2018-01-23T12:23:57.946Z,12.50
2018-01-23T12:26:25.995Z,13.03
2018-01-23T12:28:53.636Z,13.10
2018-01-23T12:31:24.972Z,12.67
2018-01-23T12:33:53.448Z,13.47
2018-01-23T12:36:22.559Z,11.87
2018-01-23T12:38:51.014Z,12.10
2018-01-23T12:41:18.741Z,11.67
2018-01-23T13:27:26.084Z,10.47
2018-01-23T13:29:53.791Z,9.90
2018-01-23T13:32:21.469Z,9.40
2018-01-23T13:34:49.126Z,10.40
2018-01-23T13:37:16.869Z,9.63
2018-01-23T13:39:44.537Z,9.00
2018-01-23T13:42:12.255Z,8.07
2018-01-23T13:44:39.954Z,8.60
2018-01-23T13:47:07.640Z,8.00
2018-01-23T13:49:36.375Z,7.93
2018-01-23T13:52:04.256Z,7.70
2018-01-23T13:54:31.913Z,8.37
2018-01-23T13:56:59.603Z,7.33
2018-01-23T13:59:28.068Z,7.03
2018-01-23T14:01:55.733Z,6.73
2018-01-23T14:04:23.771Z,6.93
2018-01-23T14:06:51.465Z,6.00
2018-01-23T14:09:19.157Z,7.03
2018-01-23T14:11:47.746Z,5.90
2018-01-23T14:14:15.441Z,6.03
2018-01-23T14:16:43.136Z,5.70
2018-01-23T14:19:10.794Z,6.27
2018-01-23T14:21:38.489Z,5.50
2018-01-23T14:24:06.185Z,5.40
2018-01-23T14:26:33.853Z,5.83
2018-01-23T14:29:01.537Z,5.60
2018-01-23T14:31:29.201Z,6.37
2018-01-23T14:33:56.898Z,6.53
2018-01-23T14:36:25.347Z,5.70
2018-01-23T14:38:53.059Z,5.33
2018-01-23T14:41:24.016Z,5.90
2018-01-23T14:43:51.649Z,5.17
2018-01-23T14:46:20.128Z,6.23
2018-01-23T14:48:47.823Z,5.93
2018-01-23T14:51:15.511Z,4.90
2018-01-23T14:53:43.232Z,5.57
2018-01-23T14:56:10.900Z,4.67
2018-01-23T14:58:38.540Z,5.00
2018-01-23T15:01:07.267Z,4.90
2018-01-23T15:03:34.968Z,4.60
2018-01-23T15:06:02.645Z,5.20
2018-01-23T15:08:30.335Z,4.90
2018-01-23T15:11:02.105Z,4.70
2018-01-23T15:13:30.643Z,4.53
2018-01-23T15:15:58.332Z,5.50
2018-01-23T15:18:26.042Z,4.57
2018-01-23T15:20:53.758Z,4.30
2018-01-23T15:23:21.444Z,4.13
2018-01-23T15:25:49.138Z,4.60
2018-01-23T15:28:19.132Z,4.10
2018-01-23T15:30:47.831Z,3.90
2018-01-23T15:33:15.547Z,3.97
2018-01-23T15:35:43.266Z,3.80
2018-01-23T15:38:10.934Z,3.57
2018-01-23T15:40:38.602Z,3.57
2018-01-23T15:43:06.301Z,4.00
2018-01-23T15:45:33.984Z,4.67
2018-01-23T15:48:01.633Z,3.63
2018-01-23T15:50:29.313Z,3.60
2018-01-23T15:52:57.022Z,3.73
2018-01-23T15:55:24.652Z,4.00
2018-01-23T15:57:52.651Z,3.90
2018-01-23T16:00:27.381Z,3.53
2018-01-23T16:02:55.074Z,3.87
2018-01-23T16:05:22.761Z,3.73
2018-01-23T16:07:50.445Z,3.50
2018-01-23T16:10:18.125Z,3.33
2018-01-23T16:12:47.052Z,3.87
2018-01-23T16:15:15.381Z,3.80
2018-01-23T16:17:43.779Z,3.60
2018-01-23T16:20:12.398Z,3.80
2018-01-23T16:22:40.083Z,3.50
2018-01-23T16:25:08.537Z,3.70
2018-01-23T16:27:36.186Z,3.90
2018-01-23T16:30:05.868Z,3.80
2018-01-23T16:32:33.519Z,3.70
2018-01-23T16:35:01.193Z,3.80
2018-01-23T16:37:28.919Z,3.43
2018-01-23T16:39:56.600Z,3.47
2018-01-23T16:42:25.054Z,3.50
2018-01-23T16:44:52.717Z,4.03
2018-01-23T16:47:20.388Z,4.00
2018-01-23T16:49:48.079Z,4.43
2018-01-23T16:52:15.765Z,4.50
2018-01-23T16:54:43.514Z,4.17
2018-01-23T16:57:11.197Z,4.60
2018-01-23T16:59:39.815Z,5.53
2018-01-23T17:02:07.512Z,4.93
2018-01-23T17:04:35.201Z,5.27
2018-01-23T17:07:02.898Z,5.70
2018-01-23T17:09:30.560Z,5.60
2018-01-23T17:11:58.200Z,5.60
2018-01-23T17:14:25.922Z,5.70
2018-01-23T17:16:54.388Z,5.17
2018-01-23T17:19:22.003Z,5.73
2018-01-23T17:21:49.696Z,6.10
2018-01-23T17:24:17.328Z,5.90
2018-01-23T17:26:44.961Z,5.70
2018-01-23T17:29:12.595Z,6.23
2018-01-23T17:31:41.218Z,6.07
2018-01-23T17:34:09.680Z,6.03
2018-01-23T17:36:37.374Z,6.80
2018-01-23T17:39:05.117Z,7.60
2018-01-23T17:41:33.559Z,7.17
2018-01-23T17:44:01.259Z,7.30
2018-01-23T17:46:29.695Z,7.30
2018-01-23T17:48:57.384Z,7.73
2018-01-23T17:51:25.970Z,7.47
2018-01-23T17:53:53.617Z,7.53
2018-01-23T17:56:21.274Z,6.97
2018-01-23T17:58:48.960Z,8.10
2018-01-23T18:01:16.651Z,7.40
2018-01-23T18:03:44.331Z,7.80
2018-01-23T18:06:11.982Z,8.00
2018-01-23T18:08:39.619Z,7.67
2018-01-23T18:11:07.266Z,7.47
2018-01-23T18:13:34.970Z,6.93
2018-01-23T18:16:02.653Z,7.03
2018-01-23T18:18:30.821Z,7.07
2018-01-23T18:20:59.379Z,7.07
2018-01-23T18:23:27.046Z,7.73
2018-01-23T18:25:55.468Z,7.13
2018-01-23T18:28:23.122Z,7.37
2018-01-23T18:30:50.773Z,6.97
2018-01-23T18:33:18.441Z,6.10
2018-01-23T18:35:46.142Z,6.50
2018-01-23T18:38:13.825Z,6.17
2018-01-23T18:40:41.530Z,6.43
2018-01-23T18:43:09.217Z,6.40
2018-01-23T18:45:36.900Z,5.37
2018-01-23T18:48:04.567Z,5.80
2018-01-23T18:50:35.875Z,6.60
2018-01-23T18:53:03.578Z,5.77
2018-01-23T18:55:31.246Z,6.47
2018-01-23T18:57:58.915Z,5.53
2018-01-23T19:00:26.604Z,5.60
2018-01-23T19:02:55.050Z,6.57
2018-01-23T19:05:22.722Z,6.00
2018-01-23T19:07:50.417Z,5.50
2018-01-23T19:10:18.089Z,5.90
2018-01-23T19:12:45.748Z,5.47
2018-01-23T19:15:13.425Z,5.70
2018-01-23T19:17:41.987Z,5.13
2018-01-23T19:20:11.643Z,6.63
2018-01-23T19:22:39.239Z,5.43
2018-01-23T19:25:06.896Z,6.57
2018-01-23T19:27:34.540Z,6.07
2018-01-23T19:30:02.223Z,6.10
2018-01-23T19:32:29.920Z,6.00
2018-01-23T19:34:57.672Z,6.07
2018-01-23T19:37:25.287Z,5.53
2018-01-23T19:39:52.983Z,5.50
2018-01-23T19:42:20.685Z,5.63
2018-01-23T19:44:48.377Z,5.77
2018-01-23T19:47:16.098Z,5.47
2018-01-23T19:49:51.027Z,5.40
2018-01-23T19:52:18.722Z,5.10
2018-01-23T19:54:46.397Z,5.30
2018-01-23T19:57:14.033Z,5.63
2018-01-23T19:59:41.713Z,5.40
2018-01-23T20:02:09.414Z,6.00
2018-01-23T20:04:37.105Z,5.23
2018-01-23T20:07:05.500Z,5.57
2018-01-23T20:09:33.178Z,5.70
2018-01-23T20:12:00.926Z,6.13
2018-01-23T20:14:28.598Z,6.33
2018-01-23T20:16:56.239Z,5.87
2018-01-23T20:19:24.708Z,6.33
2018-01-23T20:21:52.401Z,6.23
2018-01-23T20:24:20.085Z,6.23
2018-01-23T20:26:47.769Z,6.37
2018-01-23T20:29:15.964Z,6.83
2018-01-23T20:31:43.646Z,6.80
2018-01-23T20:34:11.332Z,7.10
2018-01-23T20:36:39.039Z,7.73
2018-01-23T20:39:06.666Z,7.83
2018-01-23T20:41:37.312Z,8.13
2018-01-23T20:44:04.998Z,7.20
2018-01-23T20:46:32.700Z,7.60
2018-01-23T20:49:00.386Z,7.37
2018-01-23T20:51:28.095Z,8.40
2018-01-23T20:53:55.803Z,7.77
2018-01-23T20:56:25.193Z,8.10
2018-01-23T20:58:53.664Z,8.47
2018-01-23T21:01:21.356Z,8.90
2018-01-23T21:03:49.771Z,8.57
2018-01-23T21:06:17.465Z,8.97
2018-01-23T21:08:45.395Z,9.30
2018-01-23T21:11:14.205Z,9.93
2018-01-23T21:13:42.156Z,9.00
2018-01-23T21:16:09.846Z,10.13
2018-01-23T21:18:37.536Z,9.90
2018-01-23T21:21:05.272Z,10.40
2018-01-23T21:23:32.945Z,10.10
2018-01-23T21:26:00.643Z,10.87
2018-01-23T21:28:28.264Z,10.20
2018-01-23T21:30:55.987Z,11.80
2018-01-23T21:33:23.680Z,12.90
2018-01-23T21:35:51.402Z,11.13
2018-01-23T21:38:19.073Z,11.73
2018-01-23T21:40:47.722Z,11.80
2018-01-23T21:43:15.368Z,11.27
2018-01-23T21:45:43.032Z,10.27
2018-01-23T21:48:10.693Z,11.33
2018-01-23T21:50:38.377Z,11.37
2018-01-23T21:53:06.031Z,11.63
2018-01-23T21:55:33.712Z,12.17
2018-01-23T21:58:01.413Z,12.13
2018-01-23T22:00:29.110Z,11.80
2018-01-23T22:02:56.802Z,11.30
2018-01-23T22:05:24.483Z,11.77
2018-01-23T22:07:52.167Z,12.53
2018-01-23T22:10:20.803Z,12.33
2018-01-23T22:12:48.459Z,11.60
2018-01-23T22:15:16.162Z,11.57
2018-01-23T22:17:43.815Z,13.00
2018-01-23T22:20:13.158Z,13.30
2018-01-23T22:22:40.836Z,12.63
2018-01-23T22:25:08.538Z,11.93
2018-01-23T22:27:36.216Z,12.50
2018-01-23T22:30:03.970Z,13.37
2018-01-23T22:32:31.616Z,11.73
2018-01-23T22:34:59.310Z,12.63
2018-01-23T22:37:27.012Z,12.53
2018-01-23T22:39:55.904Z,11.27
2018-01-23T22:42:23.507Z,10.57
2018-01-23T22:44:51.209Z,11.40
2018-01-23T22:47:18.866Z,10.33
2018-01-23T22:49:46.518Z,10.00
2018-01-23T22:52:14.217Z,9.53
2018-01-23T22:54:42.175Z,10.33
2018-01-23T22:57:09.876Z,10.47
2018-01-23T22:59:37.569Z,10.90
2018-01-23T23:02:05.271Z,12.30
2018-01-23T23:04:32.877Z,11.97
2018-01-23T23:07:00.569Z,11.50
2018-01-23T23:09:29.417Z,12.50
2018-01-23T23:11:57.044Z,12.90
2018-01-23T23:14:24.719Z,14.20
2018-01-23T23:16:52.335Z,14.57
2018-01-23T23:19:20.804Z,16.40
2018-01-23T23:21:48.493Z,15.67
2018-01-23T23:24:16.199Z,17.27
2018-01-23T23:26:43.870Z,17.80
2018-01-23T23:29:11.568Z,17.67
2018-01-23T23:31:40.880Z,17.03
2018-01-23T23:34:08.540Z,17.20
2018-01-23T23:36:37.243Z,18.00
2018-01-23T23:39:04.977Z,17.23
2018-01-23T23:41:32.660Z,17.47
2018-01-23T23:44:00.336Z,17.50
2018-01-23T23:46:28.025Z,17.40
2018-01-23T23:48:55.976Z,18.23
2018-01-23T23:51:23.664Z,19.03
2018-01-23T23:53:51.346Z,17.77
2018-01-23T23:56:19.931Z,17.70
2018-01-23T23:58:47.612Z,17.93
